sensor_id;sensor_type;location;lat;lon;timestamp;P1;durP1;ratioP1;P2;durP2;ratioP2
12437;SDS011;6283;51.330;12.374;2023-04-01T00:02:18;1.20;;;0.80;;
12437;SDS011;6283;51.330;12.374;2023-04-01T00:04:43;0.93;;;0.70;;
12437;SDS011;6283;51.330;12.374;2023-04-01T00:07:09;0.87;;;0.83;;
12437;SDS011;6283;51.330;12.374;2023-04-01T00:09:35;3.70;;;1.10;;
12437;SDS011;6283;51.330;12.374;2023-04-01T00:12:02;3.10;;;1.00;;
12437;SDS011;6283;51.330;12.374;2023-04-01T00:14:28;3.83;;;1.57;;
12437;SDS011;6283;51.330;12.374;2023-04-01T00:16:54;3.00;;;0.87;;
12437;SDS011;6283;51.330;12.374;2023-04-01T00:19:20;2.83;;;0.93;;
12437;SDS011;6283;51.330;12.374;2023-04-01T00:21:46;4.93;;;2.20;;
12437;SDS011;6283;51.330;12.374;2023-04-01T00:24:11;2.40;;;1.33;;
12437;SDS011;6283;51.330;12.374;2023-04-01T00:26:37;1.47;;;1.10;;
12437;SDS011;6283;51.330;12.374;2023-04-01T00:29:03;3.17;;;1.37;;
12437;SDS011;6283;51.330;12.374;2023-04-01T00:31:28;3.20;;;1.37;;
12437;SDS011;6283;51.330;12.374;2023-04-01T00:33:55;2.03;;;1.13;;
12437;SDS011;6283;51.330;12.374;2023-04-01T00:36:21;2.97;;;1.20;;
12437;SDS011;6283;51.330;12.374;2023-04-01T00:38:48;3.20;;;0.90;;
12437;SDS011;6283;51.330;12.374;2023-04-01T00:41:14;1.93;;;1.00;;
12437;SDS011;6283;51.330;12.374;2023-04-01T00:43:42;0.77;;;0.77;;
12437;SDS011;6283;51.330;12.374;2023-04-01T00:46:09;0.90;;;0.90;;
12437;SDS011;6283;51.330;12.374;2023-04-01T00:48:36;3.23;;;1.03;;
12437;SDS011;6283;51.330;12.374;2023-04-01T00:51:10;1.27;;;0.80;;
12437;SDS011;6283;51.330;12.374;2023-04-01T00:53:38;1.07;;;0.90;;
12437;SDS011;6283;51.330;12.374;2023-04-01T00:56:17;1.70;;;0.80;;
12437;SDS011;6283;51.330;12.374;2023-04-01T00:58:51;2.10;;;0.90;;
12437;SDS011;6283;51.330;12.374;2023-04-01T01:01:23;2.13;;;0.93;;
12437;SDS011;6283;51.330;12.374;2023-04-01T01:03:50;2.10;;;0.90;;
12437;SDS011;6283;51.330;12.374;2023-04-01T01:09:02;2.00;;;1.13;;
12437;SDS011;6283;51.330;12.374;2023-04-01T01:12:01;3.40;;;1.13;;
12437;SDS011;6283;51.330;12.374;2023-04-01T01:36:48;1.93;;;1.00;;
12437;SDS011;6283;51.330;12.374;2023-04-01T01:39:18;2.90;;;1.20;;
12437;SDS011;6283;51.330;12.374;2023-04-01T01:41:45;2.03;;;1.20;;
12437;SDS011;6283;51.330;12.374;2023-04-01T01:44:14;2.00;;;0.87;;
12437;SDS011;6283;51.330;12.374;2023-04-01T01:46:44;2.20;;;0.90;;
12437;SDS011;6283;51.330;12.374;2023-04-01T01:49:11;2.50;;;0.97;;
12437;SDS011;6283;51.330;12.374;2023-04-01T01:51:38;2.20;;;0.90;;
12437;SDS011;6283;51.330;12.374;2023-04-01T01:54:04;0.70;;;0.70;;
12437;SDS011;6283;51.330;12.374;2023-04-01T01:56:30;2.53;;;0.97;;
12437;SDS011;6283;51.330;12.374;2023-04-01T01:59:02;2.53;;;1.30;;
12437;SDS011;6283;51.330;12.374;2023-04-01T02:01:31;5.70;;;1.43;;
12437;SDS011;6283;51.330;12.374;2023-04-01T02:04:00;3.97;;;0.90;;
12437;SDS011;6283;51.330;12.374;2023-04-01T02:06:30;3.77;;;0.90;;
12437;SDS011;6283;51.330;12.374;2023-04-01T02:09:01;1.23;;;0.80;;
12437;SDS011;6283;51.330;12.374;2023-04-01T02:11:40;2.00;;;0.90;;
12437;SDS011;6283;51.330;12.374;2023-04-01T02:14:11;1.97;;;0.80;;
12437;SDS011;6283;51.330;12.374;2023-04-01T02:16:46;3.60;;;1.13;;
12437;SDS011;6283;51.330;12.374;2023-04-01T02:19:27;1.70;;;1.00;;
12437;SDS011;6283;51.330;12.374;2023-04-01T02:21:58;1.70;;;1.23;;
12437;SDS011;6283;51.330;12.374;2023-04-01T02:24:27;1.57;;;0.80;;
12437;SDS011;6283;51.330;12.374;2023-04-01T02:26:54;2.00;;;0.80;;
12437;SDS011;6283;51.330;12.374;2023-04-01T02:29:21;1.83;;;0.90;;
12437;SDS011;6283;51.330;12.374;2023-04-01T02:31:50;4.10;;;1.20;;
12437;SDS011;6283;51.330;12.374;2023-04-01T02:34:16;2.33;;;0.90;;
12437;SDS011;6283;51.330;12.374;2023-04-01T02:36:43;1.43;;;1.10;;
12437;SDS011;6283;51.330;12.374;2023-04-01T02:39:09;1.03;;;0.67;;
12437;SDS011;6283;51.330;12.374;2023-04-01T02:41:41;1.07;;;0.90;;
12437;SDS011;6283;51.330;12.374;2023-04-01T02:44:08;4.17;;;1.07;;
12437;SDS011;6283;51.330;12.374;2023-04-01T02:46:36;3.00;;;0.93;;
12437;SDS011;6283;51.330;12.374;2023-04-01T02:49:02;2.27;;;0.70;;
12437;SDS011;6283;51.330;12.374;2023-04-01T02:51:28;2.23;;;1.07;;
12437;SDS011;6283;51.330;12.374;2023-04-01T02:53:54;3.97;;;1.27;;
12437;SDS011;6283;51.330;12.374;2023-04-01T02:56:19;1.83;;;0.70;;
12437;SDS011;6283;51.330;12.374;2023-04-01T02:58:46;3.23;;;0.77;;
12437;SDS011;6283;51.330;12.374;2023-04-01T03:01:12;3.50;;;1.13;;
12437;SDS011;6283;51.330;12.374;2023-04-01T03:03:38;4.73;;;1.07;;
12437;SDS011;6283;51.330;12.374;2023-04-01T03:06:07;1.93;;;0.70;;
12437;SDS011;6283;51.330;12.374;2023-04-01T03:08:34;2.00;;;1.00;;
12437;SDS011;6283;51.330;12.374;2023-04-01T03:10:59;2.07;;;1.00;;
12437;SDS011;6283;51.330;12.374;2023-04-01T03:13:25;3.77;;;1.40;;
12437;SDS011;6283;51.330;12.374;2023-04-01T03:15:51;1.57;;;0.77;;
12437;SDS011;6283;51.330;12.374;2023-04-01T03:18:17;2.53;;;1.10;;
12437;SDS011;6283;51.330;12.374;2023-04-01T03:20:42;3.20;;;0.80;;
12437;SDS011;6283;51.330;12.374;2023-04-01T03:23:08;3.17;;;1.10;;
12437;SDS011;6283;51.330;12.374;2023-04-01T03:25:34;1.70;;;0.90;;
12437;SDS011;6283;51.330;12.374;2023-04-01T03:27:59;4.90;;;1.13;;
12437;SDS011;6283;51.330;12.374;2023-04-01T03:30:25;2.63;;;1.00;;
12437;SDS011;6283;51.330;12.374;2023-04-01T03:32:52;7.07;;;1.30;;
12437;SDS011;6283;51.330;12.374;2023-04-01T03:35:17;1.40;;;0.97;;
12437;SDS011;6283;51.330;12.374;2023-04-01T03:37:43;1.00;;;0.90;;
12437;SDS011;6283;51.330;12.374;2023-04-01T03:40:09;1.03;;;0.70;;
12437;SDS011;6283;51.330;12.374;2023-04-01T03:42:35;1.80;;;0.90;;
12437;SDS011;6283;51.330;12.374;2023-04-01T03:45:02;2.87;;;1.10;;
12437;SDS011;6283;51.330;12.374;2023-04-01T03:47:28;1.77;;;1.00;;
12437;SDS011;6283;51.330;12.374;2023-04-01T03:49:54;3.33;;;1.20;;
12437;SDS011;6283;51.330;12.374;2023-04-01T03:52:20;3.73;;;1.10;;
12437;SDS011;6283;51.330;12.374;2023-04-01T03:54:45;3.40;;;1.60;;
12437;SDS011;6283;51.330;12.374;2023-04-01T03:57:11;2.60;;;1.00;;
12437;SDS011;6283;51.330;12.374;2023-04-01T03:59:37;2.70;;;0.90;;
12437;SDS011;6283;51.330;12.374;2023-04-01T04:02:02;3.73;;;1.30;;
12437;SDS011;6283;51.330;12.374;2023-04-01T04:04:28;1.13;;;0.73;;
12437;SDS011;6283;51.330;12.374;2023-04-01T04:06:55;3.43;;;0.83;;
12437;SDS011;6283;51.330;12.374;2023-04-01T04:09:21;1.27;;;0.90;;
12437;SDS011;6283;51.330;12.374;2023-04-01T04:11:47;2.67;;;1.20;;
12437;SDS011;6283;51.330;12.374;2023-04-01T04:14:13;3.13;;;1.33;;
12437;SDS011;6283;51.330;12.374;2023-04-01T04:16:39;3.23;;;1.00;;
12437;SDS011;6283;51.330;12.374;2023-04-01T04:19:05;2.97;;;1.30;;
12437;SDS011;6283;51.330;12.374;2023-04-01T04:21:30;1.47;;;0.90;;
12437;SDS011;6283;51.330;12.374;2023-04-01T04:23:56;2.90;;;1.00;;
12437;SDS011;6283;51.330;12.374;2023-04-01T04:26:23;1.63;;;1.07;;
12437;SDS011;6283;51.330;12.374;2023-04-01T04:28:48;6.03;;;1.10;;
12437;SDS011;6283;51.330;12.374;2023-04-01T04:31:18;1.53;;;0.93;;
12437;SDS011;6283;51.330;12.374;2023-04-01T04:33:48;1.83;;;1.03;;
12437;SDS011;6283;51.330;12.374;2023-04-01T04:36:14;2.37;;;0.87;;
12437;SDS011;6283;51.330;12.374;2023-04-01T04:38:40;2.00;;;0.80;;
12437;SDS011;6283;51.330;12.374;2023-04-01T04:41:09;3.67;;;1.30;;
12437;SDS011;6283;51.330;12.374;2023-04-01T04:43:37;2.47;;;1.03;;
12437;SDS011;6283;51.330;12.374;2023-04-01T04:46:07;3.50;;;1.00;;
12437;SDS011;6283;51.330;12.374;2023-04-01T04:48:34;1.93;;;0.83;;
12437;SDS011;6283;51.330;12.374;2023-04-01T04:51:00;3.57;;;0.90;;
12437;SDS011;6283;51.330;12.374;2023-04-01T04:53:26;2.40;;;0.90;;
12437;SDS011;6283;51.330;12.374;2023-04-01T04:55:52;3.80;;;1.17;;
12437;SDS011;6283;51.330;12.374;2023-04-01T04:58:18;3.67;;;1.10;;
12437;SDS011;6283;51.330;12.374;2023-04-01T05:00:44;2.17;;;0.90;;
12437;SDS011;6283;51.330;12.374;2023-04-01T05:03:10;3.27;;;1.00;;
12437;SDS011;6283;51.330;12.374;2023-04-01T05:05:36;4.20;;;1.27;;
12437;SDS011;6283;51.330;12.374;2023-04-01T05:08:03;3.13;;;0.90;;
12437;SDS011;6283;51.330;12.374;2023-04-01T05:10:28;3.97;;;0.93;;
12437;SDS011;6283;51.330;12.374;2023-04-01T05:12:55;2.10;;;1.00;;
12437;SDS011;6283;51.330;12.374;2023-04-01T05:15:21;6.47;;;1.20;;
12437;SDS011;6283;51.330;12.374;2023-04-01T05:17:47;2.67;;;1.20;;
12437;SDS011;6283;51.330;12.374;2023-04-01T05:20:13;0.87;;;0.80;;
12437;SDS011;6283;51.330;12.374;2023-04-01T05:22:39;2.60;;;1.20;;
12437;SDS011;6283;51.330;12.374;2023-04-01T05:25:05;3.40;;;1.00;;
12437;SDS011;6283;51.330;12.374;2023-04-01T05:27:31;1.23;;;1.00;;
12437;SDS011;6283;51.330;12.374;2023-04-01T05:29:57;3.43;;;1.00;;
12437;SDS011;6283;51.330;12.374;2023-04-01T05:32:22;2.57;;;0.93;;
12437;SDS011;6283;51.330;12.374;2023-04-01T05:34:51;2.20;;;1.23;;
12437;SDS011;6283;51.330;12.374;2023-04-01T05:37:17;2.07;;;1.17;;
12437;SDS011;6283;51.330;12.374;2023-04-01T05:39:43;0.90;;;0.80;;
12437;SDS011;6283;51.330;12.374;2023-04-01T05:42:09;6.03;;;1.00;;
12437;SDS011;6283;51.330;12.374;2023-04-01T05:44:35;2.00;;;0.90;;
12437;SDS011;6283;51.330;12.374;2023-04-01T05:47:01;1.07;;;0.90;;
12437;SDS011;6283;51.330;12.374;2023-04-01T05:49:27;2.50;;;1.10;;
12437;SDS011;6283;51.330;12.374;2023-04-01T05:51:53;2.00;;;1.07;;
12437;SDS011;6283;51.330;12.374;2023-04-01T05:54:19;2.00;;;1.10;;
12437;SDS011;6283;51.330;12.374;2023-04-01T05:56:45;2.70;;;0.83;;
12437;SDS011;6283;51.330;12.374;2023-04-01T05:59:11;3.03;;;1.10;;
12437;SDS011;6283;51.330;12.374;2023-04-01T06:01:37;2.67;;;1.10;;
12437;SDS011;6283;51.330;12.374;2023-04-01T06:04:03;1.00;;;0.90;;
12437;SDS011;6283;51.330;12.374;2023-04-01T06:06:29;2.37;;;1.20;;
12437;SDS011;6283;51.330;12.374;2023-04-01T06:08:57;1.87;;;0.90;;
12437;SDS011;6283;51.330;12.374;2023-04-01T06:14:12;1.03;;;0.80;;
12437;SDS011;6283;51.330;12.374;2023-04-01T06:44:28;1.80;;;0.97;;
12437;SDS011;6283;51.330;12.374;2023-04-01T06:50:05;1.60;;;0.97;;
12437;SDS011;6283;51.330;12.374;2023-04-01T06:57:49;3.40;;;1.00;;
12437;SDS011;6283;51.330;12.374;2023-04-01T07:00:27;1.57;;;0.93;;
12437;SDS011;6283;51.330;12.374;2023-04-01T07:05:48;0.97;;;0.87;;
12437;SDS011;6283;51.330;12.374;2023-04-01T07:08:17;3.07;;;1.30;;
12437;SDS011;6283;51.330;12.374;2023-04-01T07:10:48;4.03;;;1.20;;
12437;SDS011;6283;51.330;12.374;2023-04-01T07:13:27;3.00;;;0.90;;
12437;SDS011;6283;51.330;12.374;2023-04-01T07:18:52;2.53;;;0.80;;
12437;SDS011;6283;51.330;12.374;2023-04-01T07:23:51;2.20;;;1.30;;
12437;SDS011;6283;51.330;12.374;2023-04-01T07:26:20;1.87;;;0.90;;
12437;SDS011;6283;51.330;12.374;2023-04-01T07:28:48;1.37;;;0.80;;
12437;SDS011;6283;51.330;12.374;2023-04-01T07:31:29;1.90;;;0.90;;
12437;SDS011;6283;51.330;12.374;2023-04-01T07:44:55;0.90;;;0.70;;
12437;SDS011;6283;51.330;12.374;2023-04-01T07:47:40;0.60;;;0.60;;
12437;SDS011;6283;51.330;12.374;2023-04-01T07:50:22;1.57;;;0.93;;
12437;SDS011;6283;51.330;12.374;2023-04-01T07:53:08;1.30;;;0.60;;
12437;SDS011;6283;51.330;12.374;2023-04-01T07:55:47;1.73;;;0.80;;
12437;SDS011;6283;51.330;12.374;2023-04-01T07:58:21;1.50;;;0.77;;
12437;SDS011;6283;51.330;12.374;2023-04-01T08:04:15;1.07;;;0.50;;
12437;SDS011;6283;51.330;12.374;2023-04-01T08:10:02;2.73;;;0.73;;
12437;SDS011;6283;51.330;12.374;2023-04-01T08:34:17;1.53;;;0.53;;
12437;SDS011;6283;51.330;12.374;2023-04-01T08:36:51;3.00;;;0.60;;
12437;SDS011;6283;51.330;12.374;2023-04-01T08:53:35;1.97;;;0.90;;
12437;SDS011;6283;51.330;12.374;2023-04-01T09:04:26;1.57;;;0.97;;
12437;SDS011;6283;51.330;12.374;2023-04-01T09:09:49;0.80;;;0.80;;
12437;SDS011;6283;51.330;12.374;2023-04-01T09:18:37;2.37;;;0.70;;
12437;SDS011;6283;51.330;12.374;2023-04-01T09:21:47;0.80;;;0.80;;
12437;SDS011;6283;51.330;12.374;2023-04-01T09:27:32;0.80;;;0.77;;
12437;SDS011;6283;51.330;12.374;2023-04-01T09:30:34;1.57;;;1.10;;
12437;SDS011;6283;51.330;12.374;2023-04-01T09:33:47;2.03;;;1.00;;
12437;SDS011;6283;51.330;12.374;2023-04-01T09:44:35;1.93;;;0.80;;
12437;SDS011;6283;51.330;12.374;2023-04-01T10:09:05;3.77;;;0.90;;
12437;SDS011;6283;51.330;12.374;2023-04-01T10:25:45;2.23;;;0.97;;
12437;SDS011;6283;51.330;12.374;2023-04-01T10:31:06;2.67;;;0.97;;
12437;SDS011;6283;51.330;12.374;2023-04-01T11:01:22;0.97;;;0.40;;
12437;SDS011;6283;51.330;12.374;2023-04-01T11:12:43;0.20;;;0.20;;
12437;SDS011;6283;51.330;12.374;2023-04-01T11:24:16;0.63;;;0.40;;
12437;SDS011;6283;51.330;12.374;2023-04-01T11:26:56;0.83;;;0.80;;
12437;SDS011;6283;51.330;12.374;2023-04-01T11:55:10;1.65;;;1.48;;
12437;SDS011;6283;51.330;12.374;2023-04-01T12:14:20;0.70;;;0.70;;
12437;SDS011;6283;51.330;12.374;2023-04-01T12:17:26;1.17;;;0.60;;
12437;SDS011;6283;51.330;12.374;2023-04-01T12:20:26;0.70;;;0.70;;
12437;SDS011;6283;51.330;12.374;2023-04-01T12:40:43;0.87;;;0.60;;
12437;SDS011;6283;51.330;12.374;2023-04-01T12:43:25;0.50;;;0.50;;
12437;SDS011;6283;51.330;12.374;2023-04-01T13:03:23;0.50;;;0.40;;
12437;SDS011;6283;51.330;12.374;2023-04-01T13:06:15;0.77;;;0.50;;
12437;SDS011;6283;51.330;12.374;2023-04-01T13:25:46;0.30;;;0.30;;
12437;SDS011;6283;51.330;12.374;2023-04-01T13:28:28;0.50;;;0.40;;
12437;SDS011;6283;51.330;12.374;2023-04-01T13:42:18;0.50;;;0.50;;
12437;SDS011;6283;51.330;12.374;2023-04-01T13:45:03;0.77;;;0.40;;
12437;SDS011;6283;51.330;12.374;2023-04-01T13:47:55;0.73;;;0.30;;
12437;SDS011;6283;51.330;12.374;2023-04-01T13:51:02;1.70;;;0.60;;
12437;SDS011;6283;51.330;12.374;2023-04-01T14:02:21;0.87;;;0.87;;
12437;SDS011;6283;51.330;12.374;2023-04-01T14:21:40;0.70;;;0.70;;
12437;SDS011;6283;51.330;12.374;2023-04-01T14:49:17;5.43;;;3.70;;
12437;SDS011;6283;51.330;12.374;2023-04-01T14:51:45;1.67;;;1.50;;
12437;SDS011;6283;51.330;12.374;2023-04-01T14:56:42;0.60;;;0.60;;
12437;SDS011;6283;51.330;12.374;2023-04-01T14:59:17;1.17;;;1.07;;
12437;SDS011;6283;51.330;12.374;2023-04-01T15:02:01;6.27;;;5.03;;
12437;SDS011;6283;51.330;12.374;2023-04-01T15:08:10;1.00;;;0.90;;
12437;SDS011;6283;51.330;12.374;2023-04-01T15:10:49;1.27;;;1.17;;
12437;SDS011;6283;51.330;12.374;2023-04-01T15:29:43;0.70;;;0.70;;
12437;SDS011;6283;51.330;12.374;2023-04-01T15:37:56;1.73;;;0.70;;
12437;SDS011;6283;51.330;12.374;2023-04-01T15:40:28;0.83;;;0.83;;
12437;SDS011;6283;51.330;12.374;2023-04-01T15:45:57;1.20;;;1.10;;
12437;SDS011;6283;51.330;12.374;2023-04-01T15:48:39;1.03;;;0.80;;
12437;SDS011;6283;51.330;12.374;2023-04-01T16:10:03;0.70;;;0.70;;
12437;SDS011;6283;51.330;12.374;2023-04-01T16:13:18;2.37;;;0.90;;
12437;SDS011;6283;51.330;12.374;2023-04-01T16:15:39;0.88;;;0.88;;
12437;SDS011;6283;51.330;12.374;2023-04-01T16:24:03;0.90;;;0.90;;
12437;SDS011;6283;51.330;12.374;2023-04-01T16:26:45;1.03;;;0.93;;
12437;SDS011;6283;51.330;12.374;2023-04-01T16:32:11;0.93;;;0.93;;
12437;SDS011;6283;51.330;12.374;2023-04-01T16:35:01;1.10;;;1.00;;
12437;SDS011;6283;51.330;12.374;2023-04-01T16:37:54;1.27;;;1.10;;
12437;SDS011;6283;51.330;12.374;2023-04-01T16:49:14;1.40;;;1.30;;
12437;SDS011;6283;51.330;12.374;2023-04-01T16:57:03;1.33;;;1.00;;
12437;SDS011;6283;51.330;12.374;2023-04-01T17:02:04;1.00;;;0.93;;
12437;SDS011;6283;51.330;12.374;2023-04-01T17:04:41;1.40;;;1.30;;
12437;SDS011;6283;51.330;12.374;2023-04-01T17:07:11;1.67;;;1.40;;
12437;SDS011;6283;51.330;12.374;2023-04-01T17:20:43;1.37;;;1.20;;
12437;SDS011;6283;51.330;12.374;2023-04-01T17:31:10;1.33;;;1.03;;
12437;SDS011;6283;51.330;12.374;2023-04-01T17:34:09;1.17;;;1.07;;
12437;SDS011;6283;51.330;12.374;2023-04-01T17:42:24;1.50;;;1.20;;
12437;SDS011;6283;51.330;12.374;2023-04-01T17:50:23;1.40;;;1.30;;
12437;SDS011;6283;51.330;12.374;2023-04-01T17:53:23;1.53;;;1.40;;
12437;SDS011;6283;51.330;12.374;2023-04-01T18:15:06;3.13;;;2.03;;
12437;SDS011;6283;51.330;12.374;2023-04-01T18:17:47;4.33;;;2.13;;
12437;SDS011;6283;51.330;12.374;2023-04-01T18:26:31;3.00;;;2.27;;
12437;SDS011;6283;51.330;12.374;2023-04-01T18:29:13;3.47;;;2.70;;
12437;SDS011;6283;51.330;12.374;2023-04-01T18:31:44;3.00;;;2.60;;
12437;SDS011;6283;51.330;12.374;2023-04-01T18:34:39;3.90;;;2.90;;
12437;SDS011;6283;51.330;12.374;2023-04-01T18:37:14;3.93;;;3.20;;
12437;SDS011;6283;51.330;12.374;2023-04-01T18:39:45;3.23;;;2.50;;
12437;SDS011;6283;51.330;12.374;2023-04-01T18:42:34;5.00;;;3.40;;
12437;SDS011;6283;51.330;12.374;2023-04-01T18:45:17;4.37;;;2.40;;
12437;SDS011;6283;51.330;12.374;2023-04-01T18:50:56;3.93;;;2.53;;
12437;SDS011;6283;51.330;12.374;2023-04-01T18:53:44;3.90;;;1.93;;
12437;SDS011;6283;51.330;12.374;2023-04-01T18:56:26;2.73;;;2.10;;
12437;SDS011;6283;51.330;12.374;2023-04-01T19:02:00;2.00;;;1.90;;
12437;SDS011;6283;51.330;12.374;2023-04-01T19:09:48;3.03;;;2.03;;
12437;SDS011;6283;51.330;12.374;2023-04-01T19:15:25;2.13;;;1.77;;
12437;SDS011;6283;51.330;12.374;2023-04-01T19:18:16;5.00;;;3.10;;
12437;SDS011;6283;51.330;12.374;2023-04-01T19:21:00;3.63;;;2.70;;
12437;SDS011;6283;51.330;12.374;2023-04-01T19:45:26;3.30;;;3.03;;
12437;SDS011;6283;51.330;12.374;2023-04-01T19:50:50;2.77;;;2.40;;
12437;SDS011;6283;51.330;12.374;2023-04-01T19:53:31;3.30;;;2.70;;
12437;SDS011;6283;51.330;12.374;2023-04-01T19:56:22;3.93;;;3.00;;
12437;SDS011;6283;51.330;12.374;2023-04-01T20:04:34;2.73;;;2.53;;
12437;SDS011;6283;51.330;12.374;2023-04-01T20:07:06;2.80;;;2.60;;
12437;SDS011;6283;51.330;12.374;2023-04-01T20:12:53;3.07;;;2.63;;
12437;SDS011;6283;51.330;12.374;2023-04-01T20:15:31;3.50;;;3.20;;
12437;SDS011;6283;51.330;12.374;2023-04-01T20:17:59;2.87;;;2.60;;
12437;SDS011;6283;51.330;12.374;2023-04-01T20:20:29;3.03;;;2.73;;
12437;SDS011;6283;51.330;12.374;2023-04-01T20:25:54;3.23;;;2.93;;
12437;SDS011;6283;51.330;12.374;2023-04-01T20:28:25;2.93;;;2.63;;
12437;SDS011;6283;51.330;12.374;2023-04-01T20:36:37;3.00;;;2.70;;
12437;SDS011;6283;51.330;12.374;2023-04-01T20:44:40;3.40;;;3.10;;
12437;SDS011;6283;51.330;12.374;2023-04-01T20:50:24;2.97;;;2.70;;
12437;SDS011;6283;51.330;12.374;2023-04-01T20:56:06;3.07;;;2.73;;
12437;SDS011;6283;51.330;12.374;2023-04-01T21:01:49;3.63;;;2.70;;
12437;SDS011;6283;51.330;12.374;2023-04-01T21:10:29;3.40;;;3.10;;
12437;SDS011;6283;51.330;12.374;2023-04-01T21:18:42;4.00;;;3.50;;
12437;SDS011;6283;51.330;12.374;2023-04-01T21:26:52;3.83;;;3.27;;
12437;SDS011;6283;51.330;12.374;2023-04-01T21:45:45;4.20;;;3.23;;
12437;SDS011;6283;51.330;12.374;2023-04-01T22:07:42;4.87;;;3.93;;
12437;SDS011;6283;51.330;12.374;2023-04-01T22:10:20;3.80;;;3.20;;
12437;SDS011;6283;51.330;12.374;2023-04-01T22:24:17;4.47;;;3.30;;
12437;SDS011;6283;51.330;12.374;2023-04-01T22:27:13;3.53;;;3.23;;
12437;SDS011;6283;51.330;12.374;2023-04-01T22:35:12;2.60;;;2.40;;
12437;SDS011;6283;51.330;12.374;2023-04-01T22:40:51;3.20;;;2.90;;
12437;SDS011;6283;51.330;12.374;2023-04-01T22:43:38;3.63;;;3.00;;
12437;SDS011;6283;51.330;12.374;2023-04-01T22:49:04;4.13;;;2.83;;
12437;SDS011;6283;51.330;12.374;2023-04-01T22:51:46;3.23;;;2.93;;
12437;SDS011;6283;51.330;12.374;2023-04-01T23:00:14;3.90;;;2.53;;
12437;SDS011;6283;51.330;12.374;2023-04-01T23:02:47;3.23;;;2.87;;
12437;SDS011;6283;51.330;12.374;2023-04-01T23:05:26;3.00;;;2.60;;
12437;SDS011;6283;51.330;12.374;2023-04-01T23:11:06;4.17;;;2.93;;
12437;SDS011;6283;51.330;12.374;2023-04-01T23:13:44;2.80;;;2.60;;
12437;SDS011;6283;51.330;12.374;2023-04-01T23:16:22;2.40;;;2.20;;
12437;SDS011;6283;51.330;12.374;2023-04-01T23:21:40;2.60;;;2.40;;
12437;SDS011;6283;51.330;12.374;2023-04-01T23:24:23;2.63;;;2.43;;
12437;SDS011;6283;51.330;12.374;2023-04-01T23:26:58;2.77;;;2.50;;
12437;SDS011;6283;51.330;12.374;2023-04-01T23:29:48;3.03;;;2.57;;
12437;SDS011;6283;51.330;12.374;2023-04-01T23:32:17;2.53;;;2.20;;
12437;SDS011;6283;51.330;12.374;2023-04-01T23:34:48;2.57;;;2.37;;
12437;SDS011;6283;51.330;12.374;2023-04-01T23:37:16;3.23;;;2.70;;
12437;SDS011;6283;51.330;12.374;2023-04-01T23:39:56;2.77;;;2.57;;
12437;SDS011;6283;51.330;12.374;2023-04-01T23:42:24;3.00;;;2.40;;
12437;SDS011;6283;51.330;12.374;2023-04-01T23:44:56;3.10;;;2.80;;
12437;SDS011;6283;51.330;12.374;2023-04-01T23:47:24;3.17;;;2.87;;
12437;SDS011;6283;51.330;12.374;2023-04-01T23:49:55;3.50;;;2.83;;
12437;SDS011;6283;51.330;12.374;2023-04-01T23:52:25;2.77;;;2.57;;
12437;SDS011;6283;51.330;12.374;2023-04-01T23:54:54;3.00;;;2.70;;
12437;SDS011;6283;51.330;12.374;2023-04-01T23:57:30;4.30;;;3.20;;
